Time;durP1;ratioP1;P1;durP2;ratioP2;P2;SDS_P1;SDS_P2;PMS_P1;PMS_P2;Temp;Humidity;BMP_temperature;BMP_pressure;BME280_temperature;BME280_humidity;BME280_pressure;Samples;Min_cycle;Max_cycle;Signal;HPM_P1;HPM_P2
2021/12/11 00:00:34;;;;;;;6.90;3.22;;;12.30;99.90;;;;;;5110779;28;20071;-58
2021/12/11 00:03:12;;;;;;;13.27;3.25;;;12.30;99.90;;;;;;5091352;28;20105;-60
2021/12/11 00:05:43;;;;;;;4.47;2.25;;;12.30;99.90;;;;;;5089362;28;20031;-61
2021/12/11 00:08:18;;;;;;;12.50;3.28;;;12.20;99.90;;;;;;5108591;28;20385;-59
2021/12/11 00:11:10;;;;;;;10.68;3.08;;;12.20;99.90;;;;;;5090350;28;20045;-58
2021/12/11 00:13:41;;;;;;;9.48;2.78;;;12.20;99.90;;;;;;5095985;28;20044;-59
2021/12/11 00:16:16;;;;;;;12.05;2.95;;;12.20;99.90;;;;;;5102837;28;20036;-59
2021/12/11 00:18:50;;;;;;;9.20;3.22;;;12.20;99.90;;;;;;5089591;28;20028;-58
2021/12/11 00:21:19;;;;;;;7.35;2.72;;;12.20;99.90;;;;;;5089856;28;20104;-59
2021/12/11 00:24:10;;;;;;;8.35;2.78;;;12.20;99.90;;;;;;5088676;28;20039;-58
2021/12/11 00:26:43;;;;;;;8.18;2.40;;;12.20;99.90;;;;;;5087492;28;20126;-59
2021/12/11 00:29:13;;;;;;;7.10;3.58;;;12.20;99.90;;;;;;5079792;28;20040;-60
2021/12/11 00:31:49;;;;;;;9.25;3.30;;;12.10;99.90;;;;;;5094542;28;20043;-58
2021/12/11 00:34:19;;;;;;;4.47;2.80;;;12.10;99.90;;;;;;5103126;28;20097;-58
2021/12/11 00:36:56;;;;;;;7.03;3.40;;;12.10;99.90;;;;;;5079710;28;20067;-58
2021/12/11 00:39:24;;;;;;;8.00;3.28;;;12.10;99.90;;;;;;5107468;28;20034;-59
2021/12/11 00:41:55;;;;;;;7.88;3.00;;;12.00;99.90;;;;;;5110435;27;20031;-57
2021/12/11 00:44:35;;;;;;;8.70;4.15;;;12.00;99.90;;;;;;5088543;28;20097;-58
2021/12/11 00:47:12;;;;;;;5.93;2.70;;;12.00;99.90;;;;;;5124585;27;20055;-60
2021/12/11 00:49:50;;;;;;;5.38;2.03;;;12.00;99.90;;;;;;5109607;28;20127;-60
2021/12/11 00:52:25;;;;;;;5.13;2.80;;;11.90;99.90;;;;;;5107904;27;20055;-58
2021/12/11 00:54:53;;;;;;;7.18;2.42;;;11.90;99.90;;;;;;5091536;28;20042;-55
2021/12/11 00:57:21;;;;;;;10.45;3.17;;;11.90;99.90;;;;;;5102063;28;20103;-58
2021/12/11 01:00:09;;;;;;;10.43;3.38;;;11.90;99.90;;;;;;5112610;28;20039;-59
2021/12/11 01:02:38;;;;;;;8.10;3.00;;;11.80;99.90;;;;;;5108932;28;20059;-60
2021/12/11 01:05:08;;;;;;;9.15;3.13;;;11.80;99.90;;;;;;5087345;28;20052;-59
2021/12/11 01:07:37;;;;;;;6.38;2.75;;;11.80;99.90;;;;;;5090805;28;20392;-59
2021/12/11 01:10:11;;;;;;;5.03;2.20;;;11.80;99.90;;;;;;5086175;28;20385;-59
2021/12/11 01:12:48;;;;;;;6.15;2.33;;;11.80;99.90;;;;;;5087679;28;20033;-59
2021/12/11 01:15:21;;;;;;;5.53;1.92;;;11.80;99.90;;;;;;5107080;28;21048;-59
2021/12/11 01:18:21;;;;;;;5.25;2.92;;;11.80;99.90;;;;;;5094571;28;20040;-59
2021/12/11 01:26:59;;;;;;;3.55;2.33;;;11.80;99.90;;;;;;5074948;28;20539;-61
2021/12/11 01:29:28;;;;;;;5.68;2.60;;;11.80;99.90;;;;;;5098409;28;20488;-60
2021/12/11 01:31:57;;;;;;;3.95;1.83;;;11.80;99.90;;;;;;5094260;28;20470;-60
2021/12/11 01:34:28;;;;;;;6.03;2.20;;;11.80;99.90;;;;;;5112793;28;20036;-60
2021/12/11 01:36:58;;;;;;;5.88;2.10;;;11.90;99.90;;;;;;5078911;28;20100;-60
2021/12/11 01:39:30;;;;;;;5.53;2.53;;;11.80;99.90;;;;;;5089153;28;20103;-60
2021/12/11 01:41:59;;;;;;;8.55;4.25;;;11.90;99.90;;;;;;5094911;28;20362;-60
2021/12/11 01:44:31;;;;;;;5.72;2.60;;;11.90;99.90;;;;;;5104334;28;20118;-60
2021/12/11 01:47:09;;;;;;;7.05;2.95;;;11.90;99.90;;;;;;5107041;27;20110;-59
2021/12/11 01:49:39;;;;;;;11.50;6.00;;;11.90;99.90;;;;;;5061090;28;20040;-57
2021/12/11 01:52:47;;;;;;;2.30;1.15;;;11.90;99.90;;;;;;5070023;28;20486;-58
2021/12/11 01:55:20;;;;;;;3.30;1.30;;;11.90;99.90;;;;;;5061488;28;20127;-59
2021/12/11 01:57:51;;;;;;;2.35;1.45;;;11.80;99.90;;;;;;5097938;28;20036;-60
2021/12/11 02:00:39;;;;;;;3.13;1.30;;;11.80;99.90;;;;;;5096701;28;20127;-58
2021/12/11 02:03:16;;;;;;;3.90;1.75;;;11.80;99.90;;;;;;5084773;28;20050;-59
2021/12/11 02:05:45;;;;;;;3.10;2.03;;;11.70;99.90;;;;;;5102037;28;20469;-59
2021/12/11 02:08:16;;;;;;;2.55;1.30;;;11.80;99.90;;;;;;5103771;28;20063;-59
2021/12/11 02:10:57;;;;;;;3.05;1.60;;;11.80;99.90;;;;;;5105427;28;20516;-58
2021/12/11 02:13:40;;;;;;;3.60;1.20;;;11.80;99.90;;;;;;5108414;28;20478;-59
2021/12/11 02:16:23;;;;;;;3.47;1.58;;;11.80;99.90;;;;;;5109164;28;20082;-59
2021/12/11 02:18:59;;;;;;;2.67;1.20;;;11.80;99.90;;;;;;5106615;28;20040;-60
2021/12/11 02:21:31;;;;;;;1.67;1.00;;;11.80;99.90;;;;;;5087103;28;20043;-60
2021/12/11 02:24:07;;;;;;;3.75;1.45;;;11.70;99.90;;;;;;5093111;28;20046;-60
2021/12/11 02:26:39;;;;;;;4.38;1.88;;;11.70;99.90;;;;;;5099882;28;20031;-60
2021/12/11 02:29:28;;;;;;;1.15;0.90;;;11.70;99.90;;;;;;5101186;28;20039;-57
2021/12/11 02:31:59;;;;;;;1.52;1.00;;;11.70;99.90;;;;;;5100739;28;20075;-57
2021/12/11 02:34:49;;;;;;;1.67;1.33;;;11.70;99.90;;;;;;5094020;28;20093;-59
2021/12/11 02:38:11;;;;;;;3.25;1.10;;;11.80;99.90;;;;;;5110349;28;20036;-58
2021/12/11 02:40:57;;;;;;;3.90;1.33;;;11.90;99.90;;;;;;5048164;28;20126;-58
2021/12/11 02:43:29;;;;;;;2.92;1.80;;;11.90;99.90;;;;;;5107350;28;20027;-57
2021/12/11 02:46:11;;;;;;;5.65;1.60;;;11.90;99.90;;;;;;5119887;28;20032;-58
2021/12/11 02:48:44;;;;;;;4.13;1.42;;;11.90;99.90;;;;;;5085116;28;20046;-54
2021/12/11 02:51:24;;;;;;;4.13;2.50;;;12.00;99.90;;;;;;5120428;28;20122;-58
2021/12/11 02:54:07;;;;;;;2.60;1.15;;;11.90;99.90;;;;;;5101436;28;20130;-56
2021/12/11 02:56:45;;;;;;;4.18;1.20;;;11.90;99.90;;;;;;5102421;28;20070;-58
2021/12/11 02:59:20;;;;;;;3.90;1.60;;;11.90;99.90;;;;;;5102058;28;20036;-58
2021/12/11 03:02:14;;;;;;;3.88;1.52;;;12.00;99.90;;;;;;5102604;28;20036;-57
2021/12/11 03:04:50;;;;;;;3.67;1.60;;;11.90;99.90;;;;;;5102215;28;20460;-57
2021/12/11 03:07:25;;;;;;;4.78;2.08;;;11.90;99.90;;;;;;5120236;28;20546;-57
2021/12/11 03:09:56;;;;;;;8.93;1.80;;;11.80;99.90;;;;;;5120154;28;20040;-57
2021/12/11 03:12:25;;;;;;;4.32;2.20;;;11.80;99.90;;;;;;5116530;28;20042;-57
2021/12/11 03:14:53;;;;;;;3.58;1.92;;;11.70;99.90;;;;;;5116871;28;20040;-57
2021/12/11 03:17:23;;;;;;;3.95;2.05;;;11.80;99.90;;;;;;5116865;28;20373;-57
2021/12/11 03:19:52;;;;;;;7.03;2.33;;;11.80;99.90;;;;;;5099032;28;20035;-55
2021/12/11 03:22:30;;;;;;;7.38;1.95;;;11.80;99.90;;;;;;5098645;28;20426;-55
2021/12/11 03:24:59;;;;;;;6.90;2.05;;;11.80;99.90;;;;;;5117069;28;20130;-57
2021/12/11 03:27:27;;;;;;;5.57;2.22;;;11.80;99.90;;;;;;5116747;28;20031;-57
2021/12/11 03:29:55;;;;;;;4.93;1.80;;;11.80;99.90;;;;;;5116774;28;20044;-57
2021/12/11 03:32:23;;;;;;;5.07;2.00;;;11.80;99.90;;;;;;5116783;28;20044;-57
2021/12/11 03:34:51;;;;;;;11.05;2.67;;;11.80;99.90;;;;;;5098293;28;20074;-56
2021/12/11 03:37:20;;;;;;;7.30;2.88;;;11.80;99.90;;;;;;5098338;28;20046;-57
2021/12/11 03:39:51;;;;;;;6.93;1.92;;;11.80;99.90;;;;;;5116480;28;20088;-55
2021/12/11 03:42:26;;;;;;;4.47;1.77;;;11.70;99.90;;;;;;5116554;28;20036;-56
2021/12/11 03:44:54;;;;;;;4.43;1.80;;;11.70;99.90;;;;;;5116389;28;20039;-57
2021/12/11 03:47:25;;;;;;;6.28;2.08;;;11.70;99.90;;;;;;5116358;28;20042;-56
2021/12/11 03:49:53;;;;;;;11.27;3.58;;;11.70;99.90;;;;;;5116374;28;20466;-54
2021/12/11 03:52:21;;;;;;;4.32;2.58;;;11.60;99.90;;;;;;5098137;28;20043;-57
2021/12/11 03:54:52;;;;;;;3.38;1.73;;;11.70;99.90;;;;;;5116101;28;20035;-57
2021/12/11 03:57:24;;;;;;;4.25;2.10;;;11.70;99.90;;;;;;5081178;28;20047;-57
2021/12/11 03:59:53;;;;;;;5.40;1.90;;;11.80;99.90;;;;;;5116214;28;20032;-57
2021/12/11 04:02:24;;;;;;;4.70;1.60;;;11.80;99.90;;;;;;5097816;28;20048;-57
2021/12/11 04:04:58;;;;;;;10.43;1.55;;;11.80;99.90;;;;;;5098197;28;20044;-54
2021/12/11 04:07:40;;;;;;;5.75;2.22;;;11.80;99.90;;;;;;5116079;28;20118;-57
2021/12/11 04:10:11;;;;;;;6.88;2.40;;;11.80;99.90;;;;;;5097839;28;20435;-56
2021/12/11 04:12:39;;;;;;;5.95;1.90;;;11.90;99.90;;;;;;5081262;28;20427;-57
2021/12/11 04:15:07;;;;;;;2.90;1.63;;;11.90;99.90;;;;;;5115995;28;20029;-58
2021/12/11 04:17:36;;;;;;;7.88;1.90;;;11.90;99.90;;;;;;5115892;28;20124;-58
2021/12/11 04:20:10;;;;;;;5.68;1.77;;;11.90;99.90;;;;;;5097632;28;20444;-57
2021/12/11 04:22:38;;;;;;;8.80;2.88;;;11.80;99.90;;;;;;5115656;28;20063;-56
2021/12/11 04:25:09;;;;;;;5.70;2.67;;;11.90;99.90;;;;;;5115787;28;20040;-54
2021/12/11 04:27:37;;;;;;;6.75;2.05;;;11.90;99.90;;;;;;5097655;28;20071;-56
2021/12/11 04:30:10;;;;;;;7.82;1.92;;;11.90;99.90;;;;;;5115538;28;20534;-57
2021/12/11 04:32:39;;;;;;;8.25;4.13;;;11.80;99.90;;;;;;5115597;28;20123;-58
2021/12/11 04:35:09;;;;;;;8.10;2.97;;;11.70;99.90;;;;;;5115305;28;20032;-56
2021/12/11 04:37:39;;;;;;;11.63;2.58;;;11.70;99.90;;;;;;5080148;28;20039;-58
2021/12/11 04:40:12;;;;;;;4.07;1.95;;;11.70;99.90;;;;;;5115357;28;20067;-56
2021/12/11 04:43:03;;;;;;;3.97;1.98;;;11.70;99.90;;;;;;5097362;28;20130;-56
2021/12/11 04:45:35;;;;;;;8.15;2.42;;;11.60;99.90;;;;;;5097090;28;20051;-57
2021/12/11 04:48:22;;;;;;;9.85;1.80;;;11.70;99.90;;;;;;5115454;28;20043;-57
2021/12/11 04:58:53;;;;;;;5.40;1.83;;;11.70;99.90;;;;;;5114995;28;20122;-58
2021/12/11 05:06:59;;;;;;;6.03;2.47;;;11.80;99.90;;;;;;5096446;28;20481;-57
2021/12/11 05:09:38;;;;;;;;;;;;;;;;;;;;;
2021/12/11 05:12:26;;;;;;;7.85;2.70;;;11.80;99.90;;;;;;5080071;28;20048;-56
2021/12/11 05:14:53;;;;;;;10.85;2.72;;;11.80;99.90;;;;;;5114845;28;20485;-57
2021/12/11 05:17:22;;;;;;;7.40;2.80;;;11.80;99.90;;;;;;5114816;28;20042;-54
2021/12/11 05:19:52;;;;;;;4.28;1.77;;;11.80;99.90;;;;;;5114449;28;20058;-56
2021/12/11 05:22:20;;;;;;;9.48;2.67;;;11.80;99.90;;;;;;5114394;28;20042;-57
2021/12/11 05:24:51;;;;;;;7.75;3.30;;;11.70;99.90;;;;;;5114521;28;20068;-57
2021/12/11 05:27:19;;;;;;;6.38;2.20;;;11.70;99.90;;;;;;5114464;28;20036;-55
2021/12/11 05:29:47;;;;;;;5.68;2.30;;;11.80;99.90;;;;;;5096292;28;20393;-57
2021/12/11 05:32:21;;;;;;;6.97;2.05;;;11.80;99.90;;;;;;5114444;28;20482;-56
2021/12/11 05:34:50;;;;;;;8.02;2.38;;;11.80;99.90;;;;;;5095717;28;20183;-55
2021/12/11 05:37:19;;;;;;;27.08;2.92;;;11.80;99.90;;;;;;5114456;28;20081;-58
2021/12/11 05:39:47;;;;;;;5.15;2.35;;;11.90;99.90;;;;;;5079438;28;20040;-58
2021/12/11 05:42:15;;;;;;;3.33;2.08;;;11.90;99.90;;;;;;5079278;28;20130;-56
2021/12/11 05:44:44;;;;;;;7.35;2.65;;;11.90;99.90;;;;;;5096167;28;20043;-57
2021/12/11 05:47:12;;;;;;;6.00;2.55;;;11.90;99.90;;;;;;5114382;28;20048;-58
2021/12/11 05:49:41;;;;;;;6.28;2.55;;;11.90;99.90;;;;;;5114321;28;20039;-57
2021/12/11 05:52:10;;;;;;;9.65;3.97;;;11.90;99.90;;;;;;5096285;28;20441;-59
2021/12/11 05:54:40;;;;;;;6.15;2.45;;;11.90;99.90;;;;;;5114151;28;20046;-58
2021/12/11 05:57:12;;;;;;;13.48;2.25;;;11.80;99.90;;;;;;5113982;28;20060;-58
2021/12/11 05:59:41;;;;;;;9.95;4.60;;;11.90;99.90;;;;;;5113941;28;20035;-58
2021/12/11 06:02:21;;;;;;;20.25;9.85;;;11.90;99.90;;;;;;5113776;28;20043;-59
2021/12/11 06:04:52;;;;;;;15.77;10.25;;;11.90;99.90;;;;;;5113811;28;20035;-58
2021/12/11 06:07:23;;;;;;;15.40;6.65;;;11.90;99.90;;;;;;5113591;28;20096;-58
2021/12/11 06:10:12;;;;;;;7.10;4.03;;;12.00;99.90;;;;;;5095460;28;20048;-58
2021/12/11 06:12:40;;;;;;;8.23;3.00;;;11.90;99.90;;;;;;5095337;28;20548;-58
2021/12/11 06:15:09;;;;;;;5.85;2.42;;;11.80;99.90;;;;;;5113405;28;20039;-55
2021/12/11 06:17:41;;;;;;;8.82;3.05;;;11.80;99.90;;;;;;5079380;28;20043;-56
2021/12/11 06:20:12;;;;;;;11.45;3.83;;;11.80;99.90;;;;;;5095464;28;20423;-59
2021/12/11 06:22:40;;;;;;;7.90;3.13;;;11.80;99.90;;;;;;5113486;28;20031;-57
2021/12/11 06:25:12;;;;;;;9.73;4.38;;;11.80;99.90;;;;;;5078888;28;20558;-57
2021/12/11 06:27:40;;;;;;;6.38;2.33;;;11.80;99.90;;;;;;5095747;28;20044;-56
2021/12/11 06:30:11;;;;;;;7.80;3.92;;;11.80;99.90;;;;;;5113609;28;20131;-56
2021/12/11 06:32:39;;;;;;;9.40;2.42;;;11.80;99.90;;;;;;5095408;28;20122;-57
2021/12/11 06:35:13;;;;;;;6.22;2.70;;;11.70;99.90;;;;;;5113671;28;20415;-56
2021/12/11 06:37:41;;;;;;;5.22;2.88;;;11.70;99.90;;;;;;5113412;28;20420;-55
2021/12/11 06:40:10;;;;;;;8.80;4.28;;;11.70;99.90;;;;;;5113725;28;20138;-57
2021/12/11 06:42:37;;;;;;;5.95;2.38;;;11.80;99.90;;;;;;5095505;28;20459;-56
2021/12/11 06:45:05;;;;;;;5.03;2.15;;;11.80;99.90;;;;;;5095151;28;20449;-54
2021/12/11 06:47:33;;;;;;;5.20;3.30;;;11.80;99.90;;;;;;5098849;28;20043;-55
2021/12/11 06:50:04;;;;;;;5.50;2.13;;;11.70;99.90;;;;;;5098963;28;20035;-56
2021/12/11 06:52:31;;;;;;;8.00;2.22;;;11.70;99.90;;;;;;5098902;28;20679;-58
2021/12/11 06:54:59;;;;;;;6.97;2.28;;;11.70;99.90;;;;;;5098894;28;20031;-57
2021/12/11 06:57:27;;;;;;;4.53;2.45;;;11.70;99.90;;;;;;5116959;28;20035;-57
2021/12/11 06:59:54;;;;;;;4.93;1.98;;;11.70;99.90;;;;;;5117082;28;20036;-54
2021/12/11 07:02:22;;;;;;;7.20;3.17;;;11.80;99.90;;;;;;5117196;28;20035;-53
2021/12/11 07:04:54;;;;;;;6.00;2.60;;;11.80;99.90;;;;;;5099071;28;20435;-54
2021/12/11 07:07:27;;;;;;;8.38;2.97;;;11.80;99.90;;;;;;5117505;28;20042;-57
2021/12/11 07:09:55;;;;;;;10.00;3.95;;;11.70;99.90;;;;;;5117168;28;20350;-57
2021/12/11 07:12:22;;;;;;;11.38;2.97;;;11.80;99.90;;;;;;5116944;28;20032;-56
2021/12/11 07:14:51;;;;;;;8.90;3.65;;;11.70;99.90;;;;;;5098855;28;20516;-57
2021/12/11 07:17:21;;;;;;;5.10;3.63;;;11.60;99.90;;;;;;5117102;28;20036;-56
2021/12/11 07:19:49;;;;;;;7.60;2.97;;;11.60;99.90;;;;;;5116719;28;20056;-58
2021/12/11 07:22:17;;;;;;;7.30;2.67;;;11.60;99.90;;;;;;5098966;28;20051;-58
2021/12/11 07:25:01;;;;;;;12.63;3.65;;;11.50;99.90;;;;;;5116725;28;20039;-53
2021/12/11 07:27:29;;;;;;;8.07;2.65;;;11.60;99.90;;;;;;5081813;28;20061;-53
2021/12/11 07:29:57;;;;;;;7.85;3.00;;;11.60;99.90;;;;;;5098603;28;20047;-53
2021/12/11 07:32:25;;;;;;;8.38;3.00;;;11.60;99.90;;;;;;5116467;28;20043;-55
2021/12/11 07:34:53;;;;;;;10.48;2.45;;;11.60;99.90;;;;;;5098329;28;20031;-54
2021/12/11 07:37:21;;;;;;;5.53;2.33;;;11.70;99.90;;;;;;5116458;28;20036;-55
2021/12/11 07:39:49;;;;;;;5.55;2.05;;;11.80;99.90;;;;;;5116140;28;20070;-53
2021/12/11 07:42:16;;;;;;;7.88;3.80;;;11.80;99.90;;;;;;5116139;28;20047;-53
2021/12/11 07:44:44;;;;;;;8.93;2.92;;;11.90;99.90;;;;;;5097966;28;20478;-55
2021/12/11 07:47:12;;;;;;;6.07;2.40;;;12.00;99.90;;;;;;5081585;28;20047;-55
2021/12/11 07:49:41;;;;;;;7.22;2.78;;;12.00;99.90;;;;;;5098155;28;20105;-55
2021/12/11 07:52:08;;;;;;;4.00;2.03;;;12.00;99.90;;;;;;5116095;28;20032;-55
2021/12/11 07:54:36;;;;;;;5.78;3.10;;;12.00;99.90;;;;;;5115980;28;20047;-56
2021/12/11 07:57:04;;;;;;;5.30;2.22;;;12.00;99.90;;;;;;5097482;28;20047;-55
2021/12/11 07:59:32;;;;;;;8.07;3.03;;;12.10;99.90;;;;;;5115783;28;20070;-55
2021/12/11 08:02:00;;;;;;;6.30;2.47;;;12.20;99.90;;;;;;5097876;28;20044;-56
2021/12/11 08:04:27;;;;;;;7.38;4.18;;;12.30;99.90;;;;;;5115943;28;20042;-56
2021/12/11 08:06:55;;;;;;;13.63;6.18;;;12.50;99.90;;;;;;5097812;28;20104;-56
2021/12/11 08:09:23;;;;;;;11.32;5.05;;;12.90;99.90;;;;;;5097812;28;20043;-55
2021/12/11 08:11:52;;;;;;;10.52;4.68;;;13.40;99.90;;;;;;5097588;28;20073;-57
2021/12/11 08:14:22;;;;;;;7.63;3.67;;;13.80;99.90;;;;;;5115934;28;20063;-57
2021/12/11 08:16:56;;;;;;;7.90;3.40;;;14.00;99.90;;;;;;5081073;28;20043;-55
2021/12/11 08:19:27;;;;;;;8.65;4.68;;;14.10;99.90;;;;;;5097333;28;20035;-54
2021/12/11 08:21:59;;;;;;;8.32;4.30;;;14.20;99.90;;;;;;5097886;28;20040;-56
2021/12/11 08:24:29;;;;;;;7.22;3.55;;;14.10;99.90;;;;;;5097893;28;20059;-58
2021/12/11 08:27:01;;;;;;;8.93;3.45;;;14.00;99.90;;;;;;5115817;28;20408;-57
2021/12/11 08:29:29;;;;;;;5.75;3.35;;;13.90;99.90;;;;;;5080721;28;20157;-58
2021/12/11 08:31:58;;;;;;;9.20;3.72;;;13.80;99.90;;;;;;5097338;28;20120;-58
2021/12/11 08:34:26;;;;;;;15.70;6.38;;;13.80;99.90;;;;;;5115457;28;20035;-57
2021/12/11 08:36:55;;;;;;;20.90;11.48;;;14.00;99.90;;;;;;5115268;28;20070;-58
2021/12/11 08:39:25;;;;;;;17.13;8.55;;;14.20;99.90;;;;;;5115187;28;20035;-58
2021/12/11 08:41:54;;;;;;;10.25;6.18;;;14.30;99.90;;;;;;5115579;28;20092;-57
2021/12/11 08:44:23;;;;;;;9.15;3.95;;;14.50;99.90;;;;;;5080564;28;20061;-56
2021/12/11 08:46:58;;;;;;;6.20;3.22;;;14.50;99.90;;;;;;5097131;28;20039;-57
2021/12/11 08:49:30;;;;;;;5.90;2.97;;;14.50;99.90;;;;;;5096893;28;20142;-57
2021/12/11 08:52:09;;;;;;;7.78;2.28;;;14.40;99.90;;;;;;5097102;28;20377;-57
2021/12/11 08:54:38;;;;;;;5.68;3.13;;;14.30;99.90;;;;;;5080287;28;20051;-57
2021/12/11 08:57:10;;;;;;;7.32;4.32;;;14.30;99.90;;;;;;5096793;28;20088;-57
2021/12/11 08:59:41;;;;;;;11.70;3.53;;;14.10;99.90;;;;;;5114969;28;20051;-57
2021/12/11 09:02:14;;;;;;;5.30;3.10;;;14.00;99.90;;;;;;5115259;28;20039;-57
2021/12/11 09:04:53;;;;;;;6.20;3.50;;;13.90;99.90;;;;;;5079868;28;20066;-57
2021/12/11 09:07:55;;;;;;;5.97;3.10;;;13.90;99.90;;;;;;5114731;28;20047;-57
2021/12/11 09:10:27;;;;;;;5.40;3.45;;;13.90;99.90;;;;;;5110447;28;20043;-57
2021/12/11 09:13:14;;;;;;;9.95;4.32;;;13.90;99.90;;;;;;5114812;28;20475;-58
2021/12/11 09:15:55;;;;;;;6.72;4.25;;;13.90;99.90;;;;;;5096577;28;20135;-54
2021/12/11 09:18:29;;;;;;;8.10;5.10;;;13.90;99.90;;;;;;5096706;28;20042;-55
2021/12/11 09:21:06;;;;;;;10.23;6.18;;;13.90;99.90;;;;;;5114434;28;20035;-56
2021/12/11 09:23:42;;;;;;;8.55;5.55;;;14.00;99.90;;;;;;5114707;28;20036;-58
2021/12/11 09:26:24;;;;;;;15.70;8.60;;;13.90;99.90;;;;;;5114584;28;20047;-57
2021/12/11 09:29:01;;;;;;;9.02;4.53;;;14.00;99.90;;;;;;5114475;28;20042;-57
2021/12/11 09:31:54;;;;;;;9.50;4.00;;;13.90;99.90;;;;;;5079400;28;20550;-57
2021/12/11 09:34:27;;;;;;;8.15;3.65;;;13.80;99.90;;;;;;5096540;28;20035;-57
2021/12/11 09:36:57;;;;;;;11.43;3.65;;;13.70;99.90;;;;;;5095854;28;20047;-56
2021/12/11 09:39:37;;;;;;;5.38;2.95;;;13.50;99.90;;;;;;5114390;28;20507;-56
2021/12/11 09:42:04;;;;;;;10.07;3.53;;;13.40;99.90;;;;;;5114265;28;20032;-56
2021/12/11 09:44:42;;;;;;;12.02;4.93;;;13.40;99.90;;;;;;5079036;28;20423;-56
2021/12/11 09:47:24;;;;;;;12.07;3.88;;;13.40;99.90;;;;;;5114210;28;20040;-56
2021/12/11 09:50:01;;;;;;;9.82;3.75;;;13.30;99.90;;;;;;5114279;28;20120;-55
2021/12/11 09:52:32;;;;;;;12.13;4.38;;;13.20;99.90;;;;;;5079207;28;20040;-55
2021/12/11 09:55:10;;;;;;;15.02;4.55;;;13.20;99.90;;;;;;5114001;28;20035;-55
2021/12/11 09:57:46;;;;;;;8.15;4.47;;;13.20;99.90;;;;;;5096500;28;20084;-55
2021/12/11 10:00:19;;;;;;;8.47;3.77;;;13.30;99.90;;;;;;5114152;28;20047;-56
2021/12/11 10:02:47;;;;;;;12.93;6.07;;;13.30;99.90;;;;;;5079208;28;20071;-56
2021/12/11 10:05:32;;;;;;;6.43;4.05;;;13.30;99.90;;;;;;5096053;28;20051;-57
2021/12/11 10:08:28;;;;;;;8.10;4.32;;;13.40;99.90;;;;;;5095608;28;20489;-56
2021/12/11 10:11:02;;;;;;;5.78;2.78;;;13.40;99.90;;;;;;5096155;28;20123;-56
2021/12/11 10:13:31;;;;;;;6.20;3.47;;;13.40;99.90;;;;;;5095925;28;20067;-57
2021/12/11 10:16:00;;;;;;;14.25;4.55;;;13.50;99.90;;;;;;5095992;28;20124;-57
2021/12/11 10:18:32;;;;;;;10.18;3.97;;;13.50;99.90;;;;;;5113942;28;20048;-56
2021/12/11 10:21:08;;;;;;;7.55;3.35;;;13.40;99.90;;;;;;5096809;28;20127;-55
2021/12/11 10:23:38;;;;;;;7.50;2.85;;;13.40;99.90;;;;;;5117949;28;20046;-56
2021/12/11 10:26:10;;;;;;;10.68;3.47;;;13.50;99.90;;;;;;5099154;28;20048;-57
2021/12/11 10:28:42;;;;;;;13.77;6.30;;;13.40;99.90;;;;;;5099583;28;20199;-56
2021/12/11 10:31:21;;;;;;;10.45;6.20;;;13.50;99.90;;;;;;5099568;28;20038;-56
2021/12/11 10:33:49;;;;;;;8.48;4.60;;;13.50;99.90;;;;;;5117793;28;20028;-56
2021/12/11 10:36:22;;;;;;;6.85;3.58;;;13.50;99.90;;;;;;5099775;28;20114;-58
2021/12/11 10:38:50;;;;;;;8.57;3.80;;;13.50;99.90;;;;;;5118037;28;20062;-56
2021/12/11 10:41:27;;;;;;;10.07;3.92;;;13.30;99.90;;;;;;5117782;28;20034;-58
2021/12/11 10:44:19;;;;;;;10.23;5.97;;;13.40;99.90;;;;;;5117857;28;20047;-57
2021/12/11 10:46:53;;;;;;;8.40;4.90;;;13.50;99.90;;;;;;5088119;28;20213;-57
2021/12/11 10:49:22;;;;;;;12.13;5.53;;;13.50;99.90;;;;;;5117280;28;20047;-58
2021/12/11 10:51:54;;;;;;;9.57;4.38;;;13.40;99.90;;;;;;5117641;28;20043;-57
2021/12/11 10:54:23;;;;;;;10.25;4.40;;;13.40;99.90;;;;;;5117444;28;20036;-58
2021/12/11 10:56:50;;;;;;;6.50;3.28;;;13.20;99.90;;;;;;5099382;28;20036;-58
2021/12/11 10:59:27;;;;;;;5.07;2.92;;;13.10;99.90;;;;;;5082575;28;20055;-57
2021/12/11 11:02:06;;;;;;;5.28;3.10;;;13.10;99.90;;;;;;5090840;28;20086;-57
2021/12/11 11:04:38;;;;;;;7.20;3.03;;;13.10;99.90;;;;;;5117335;28;20035;-57
2021/12/11 11:07:07;;;;;;;7.10;4.32;;;13.10;99.90;;;;;;5117183;28;20039;-57
2021/12/11 11:09:35;;;;;;;9.15;3.95;;;13.00;99.90;;;;;;5098869;28;20039;-57
2021/12/11 11:12:06;;;;;;;8.52;3.65;;;13.10;99.90;;;;;;5082239;28;20038;-57
2021/12/11 11:14:36;;;;;;;13.98;4.80;;;13.20;99.90;;;;;;5099506;28;20043;-57
2021/12/11 11:17:16;;;;;;;5.85;2.53;;;13.20;99.90;;;;;;5116974;28;20473;-57
2021/12/11 11:19:45;;;;;;;4.15;2.72;;;13.20;99.90;;;;;;5098984;28;20074;-57
2021/12/11 11:22:19;;;;;;;6.05;3.60;;;13.30;99.90;;;;;;5098927;28;20040;-57
2021/12/11 11:24:52;;;;;;;6.43;3.35;;;13.30;99.90;;;;;;5116953;28;20057;-57
2021/12/11 11:27:20;;;;;;;12.25;3.30;;;13.40;99.90;;;;;;5116719;28;20096;-57
2021/12/11 11:29:48;;;;;;;6.05;3.28;;;13.40;99.90;;;;;;5116664;28;20133;-57
2021/12/11 11:32:20;;;;;;;7.75;4.13;;;13.50;99.90;;;;;;5115541;28;20044;-57
2021/12/11 11:34:48;;;;;;;5.32;3.08;;;13.60;99.90;;;;;;5098363;28;20535;-56
2021/12/11 11:37:19;;;;;;;8.90;4.32;;;13.70;99.90;;;;;;5115940;28;20512;-57
2021/12/11 11:39:48;;;;;;;10.15;3.55;;;13.70;99.90;;;;;;5098725;28;20044;-57
2021/12/11 11:42:20;;;;;;;8.50;4.43;;;13.80;99.90;;;;;;5098143;28;20040;-57
2021/12/11 11:44:50;;;;;;;11.50;4.15;;;13.80;99.90;;;;;;5116195;28;20093;-57
2021/12/11 11:47:19;;;;;;;11.55;4.45;;;13.90;99.90;;;;;;5081524;28;20046;-59
2021/12/11 11:49:47;;;;;;;10.73;4.55;;;13.90;99.90;;;;;;5116207;28;20359;-61
2021/12/11 11:52:18;;;;;;;12.07;4.85;;;13.90;99.90;;;;;;5116107;28;20039;-61
2021/12/11 11:54:49;;;;;;;9.05;3.70;;;13.90;99.90;;;;;;5081374;28;20054;-61
2021/12/11 11:57:33;;;;;;;5.65;2.75;;;13.80;99.90;;;;;;5098094;28;20032;-61
2021/12/11 12:00:11;;;;;;;7.47;3.88;;;13.80;99.90;;;;;;5116423;28;20035;-60
2021/12/11 12:02:40;;;;;;;11.55;2.80;;;13.80;99.90;;;;;;5116010;28;20027;-63
2021/12/11 12:05:09;;;;;;;5.47;2.28;;;13.60;99.90;;;;;;5081360;28;20497;-63
2021/12/11 12:07:38;;;;;;;6.68;3.08;;;13.50;99.90;;;;;;5116096;28;20082;-63
2021/12/11 12:10:18;;;;;;;10.00;4.55;;;13.40;99.90;;;;;;5095770;28;20476;-63
2021/12/11 12:12:47;;;;;;;11.93;5.28;;;13.40;99.90;;;;;;5096817;28;20031;-63
2021/12/11 12:15:22;;;;;;;7.63;3.33;;;13.30;99.90;;;;;;5090128;28;20131;-63
2021/12/11 12:17:50;;;;;;;10.95;5.10;;;12.80;99.90;;;;;;5110267;28;20505;-63
2021/12/11 12:20:20;;;;;;;8.30;3.10;;;12.80;99.90;;;;;;5112911;28;20039;-63
2021/12/11 12:22:50;;;;;;;9.00;4.43;;;12.90;99.90;;;;;;5114547;28;20062;-63
2021/12/11 12:25:18;;;;;;;5.78;3.95;;;13.00;99.90;;;;;;5092640;28;20035;-63
2021/12/11 12:27:46;;;;;;;9.70;5.97;;;13.10;99.90;;;;;;5111246;28;20397;-63
2021/12/11 12:30:35;;;;;;;10.73;5.25;;;13.20;99.90;;;;;;5098310;28;20111;-63
2021/12/11 12:33:05;;;;;;;7.15;4.85;;;13.30;99.90;;;;;;5079505;28;20558;-63
2021/12/11 12:35:33;;;;;;;9.38;4.50;;;13.30;99.90;;;;;;5112369;28;20485;-63
2021/12/11 12:38:03;;;;;;;10.02;4.28;;;13.50;99.90;;;;;;5095276;28;20035;-63
2021/12/11 12:40:38;;;;;;;4.57;3.15;;;13.80;99.90;;;;;;5079199;28;20130;-63
2021/12/11 12:43:13;;;;;;;5.93;3.33;;;13.90;99.90;;;;;;5099917;28;20374;-63
2021/12/11 12:45:50;;;;;;;6.88;4.20;;;14.00;99.90;;;;;;5093717;28;20039;-63
2021/12/11 12:48:21;;;;;;;8.02;4.07;;;14.10;99.90;;;;;;5076520;28;20241;-63
2021/12/11 12:50:53;;;;;;;6.38;3.65;;;14.10;99.90;;;;;;5101511;28;20081;-63
2021/12/11 12:53:23;;;;;;;9.40;4.53;;;14.10;99.90;;;;;;5080307;28;20531;-63
2021/12/11 12:55:59;;;;;;;13.73;4.65;;;14.00;99.90;;;;;;5097077;28;20032;-63
2021/12/11 12:58:40;;;;;;;8.40;3.63;;;13.90;99.90;;;;;;5080057;28;20335;-62
2021/12/11 13:01:29;;;;;;;8.32;3.10;;;13.70;99.90;;;;;;5079751;28;20048;-61
2021/12/11 13:04:01;;;;;;;7.22;3.88;;;13.70;99.90;;;;;;5096581;28;20138;-61
2021/12/11 13:06:33;;;;;;;7.78;3.83;;;13.60;99.90;;;;;;5114743;28;20063;-62
2021/12/11 13:09:10;;;;;;;5.22;3.45;;;13.60;99.90;;;;;;5114878;28;20129;-61
2021/12/11 13:11:59;;;;;;;9.48;4.47;;;13.60;99.90;;;;;;5079834;28;20089;-62
2021/12/11 13:14:28;;;;;;;11.27;5.30;;;13.50;99.90;;;;;;5096543;28;20036;-61
2021/12/11 13:17:18;;;;;;;12.95;5.47;;;13.20;99.90;;;;;;5096494;28;20047;-61
2021/12/11 13:19:50;;;;;;;10.00;5.25;;;13.20;99.90;;;;;;5114444;28;20370;-61
2021/12/11 13:22:23;;;;;;;6.15;4.97;;;13.20;99.90;;;;;;5114374;28;20556;-62
2021/12/11 13:24:56;;;;;;;10.23;5.55;;;13.20;99.90;;;;;;5096512;28;20351;-62
2021/12/11 13:27:28;;;;;;;8.13;4.43;;;13.20;99.90;;;;;;5114430;28;20036;-67
2021/12/11 13:30:00;;;;;;;6.28;3.67;;;13.30;99.90;;;;;;5096403;28;20062;-62
2021/12/11 13:32:30;;;;;;;7.35;3.90;;;13.40;99.90;;;;;;5114492;28;20169;-63
2021/12/11 13:35:04;;;;;;;10.60;4.97;;;13.50;99.90;;;;;;5096247;28;20043;-62